Hovedside
METAR-TAF:

METAR-TAF

Lufthavner :

Kudat, Malaysia

breddegrad: 06-55N, lengdegrad: 116-50E, høyde over havet: 3 m

Gjeldene værobservasjon

Denne rapporten ble laget for 1 time og 15 minutter siden, klokken 23:00 UTC
Vind 2 kt fra skiftende retning
Temperatur 26°C
Luftfuktighet 94%
Trykk 1008 hPa

METAR: WBKT 212300Z AUTO VRB02KT //// // ////// 26/25 Q1008

Tid: 08:15 (00:15 UTC)


TAF: fraværende

Værobservasjoner og værvarsel for over 4000 flyplasser (METAR- og TAF-rapporter).

Tilgjengelige stasjoner er representert av de røde og gule prikkene på kartet.

Hold musepekeren over prikken for å se navnet på stasjonen.

Klikk så for å se værobservasjoner og -varsler.

For å forandre kartet kan du klikke på den grønne knappen med svart kryss for å zoome inn, på den grønne knappen med strek for å zoome ut, eller på de grønne pilene for å se tilstøtende kart.


METAR-TAF: